createdAt,value
2018-10-18T00:01:11.443Z,101608.41
2018-10-18T00:03:41.966Z,101613.09
2018-10-18T00:06:12.138Z,101608.45
2018-10-18T00:08:42.447Z,101606.78
2018-10-18T00:11:13.093Z,101606.87
2018-10-18T00:13:42.850Z,101606.03
2018-10-18T00:16:13.926Z,101605.88
2018-10-18T00:18:49.016Z,101606.91
2018-10-18T00:21:20.071Z,101611.97
2018-10-18T00:23:49.830Z,101610.80
2018-10-18T00:26:21.914Z,101610.39
2018-10-18T00:28:51.960Z,101609.27
2018-10-18T00:31:22.436Z,101612.04
2018-10-18T00:36:37.065Z,101612.01
2018-10-18T00:39:14.486Z,101615.30
2018-10-18T00:41:44.920Z,101539.42
2018-10-18T00:44:14.807Z,101615.97
2018-10-18T00:46:46.142Z,101613.95
2018-10-18T00:49:20.450Z,101613.59
2018-10-18T00:51:50.582Z,101620.56
2018-10-18T00:54:21.535Z,101616.29
2018-10-18T00:56:51.591Z,101624.95
2018-10-18T00:59:22.663Z,101626.22
2018-10-18T01:01:52.496Z,101631.39
2018-10-18T01:04:22.449Z,101627.81
2018-10-18T01:06:52.246Z,101635.97
2018-10-18T01:09:21.773Z,101636.33
2018-10-18T01:11:51.822Z,101634.38
2018-10-18T01:14:23.451Z,101634.38
2018-10-18T01:16:58.108Z,101634.55
2018-10-18T01:22:59.910Z,101628.12
2018-10-18T01:25:30.318Z,101636.14
2018-10-18T01:30:49.255Z,101638.83
2018-10-18T01:33:19.113Z,101641.30
2018-10-18T01:35:48.656Z,101652.08
2018-10-18T01:38:18.242Z,101651.19
2018-10-18T01:40:47.656Z,101647.25
2018-10-18T01:43:17.156Z,101654.41
2018-10-18T01:45:46.730Z,101649.75
2018-10-18T01:48:16.808Z,101651.95
2018-10-18T01:50:46.384Z,101648.91
2018-10-18T01:53:17.021Z,101607.38
2018-10-18T01:55:46.469Z,101656.25
2018-10-18T01:58:16.645Z,101646.17
2018-10-18T02:00:46.346Z,101648.55
2018-10-18T02:03:15.931Z,101645.72
2018-10-18T02:05:45.454Z,101645.77
2018-10-18T02:08:15.752Z,101652.71
2018-10-18T02:10:45.277Z,101649.48
2018-10-18T02:13:14.839Z,101649.48
2018-10-18T02:15:44.520Z,101649.70
2018-10-18T02:18:17.931Z,101607.33
2018-10-18T02:20:47.345Z,101648.67
2018-10-18T02:23:17.797Z,101657.17
2018-10-18T02:25:47.856Z,101658.16
2018-10-18T02:28:17.199Z,101657.91
2018-10-18T02:30:46.991Z,101666.66
2018-10-18T02:33:17.049Z,101666.02
2018-10-18T02:35:47.375Z,101666.02
2018-10-18T02:38:17.380Z,101659.94
2018-10-18T02:40:47.451Z,101661.05
2018-10-18T02:43:16.975Z,101670.91
2018-10-18T02:45:50.969Z,101673.55
2018-10-18T02:48:20.593Z,101667.92
2018-10-18T02:50:50.001Z,101667.47
2018-10-18T02:53:19.922Z,101660.49
2018-10-18T02:55:49.303Z,101659.64
2018-10-18T02:58:18.761Z,101658.35
2018-10-18T03:00:48.458Z,101661.78
2018-10-18T03:03:18.014Z,101661.03
2018-10-18T03:05:47.672Z,101657.23
2018-10-18T03:08:17.314Z,101661.88
2018-10-18T03:10:47.207Z,101666.98
2018-10-18T03:13:16.863Z,101667.07
2018-10-18T03:15:46.837Z,101672.66
2018-10-18T03:18:16.502Z,101668.59
2018-10-18T03:20:46.262Z,101674.14
2018-10-18T03:23:16.220Z,101670.83
2018-10-18T03:25:46.301Z,101673.02
2018-10-18T03:28:15.792Z,101674.27
2018-10-18T03:30:46.195Z,101664.97
2018-10-18T03:33:15.836Z,101675.79
2018-10-18T03:35:45.228Z,101680.45
2018-10-18T03:38:15.065Z,101677.90
2018-10-18T03:40:44.532Z,101677.90
2018-10-18T03:43:14.268Z,101677.41
2018-10-18T03:45:44.588Z,101685.10
2018-10-18T03:48:14.629Z,101683.41
2018-10-18T03:50:44.353Z,101686.00
2018-10-18T03:56:04.577Z,101694.28
2018-10-18T03:58:35.485Z,101711.24
2018-10-18T04:01:07.038Z,101700.42
2018-10-18T04:03:38.315Z,101701.77
2018-10-18T04:06:08.662Z,101706.33
2018-10-18T04:08:38.159Z,101706.69
2018-10-18T04:11:10.422Z,101708.30
2018-10-18T04:13:41.800Z,101706.33
2018-10-18T04:16:15.276Z,101706.02
2018-10-18T04:18:45.529Z,101702.98
2018-10-18T04:21:17.443Z,101704.27
2018-10-18T04:23:48.392Z,101703.42
2018-10-18T04:26:19.019Z,101706.77
2018-10-18T04:28:49.722Z,101708.20
2018-10-18T04:31:20.596Z,101710.35
2018-10-18T04:33:51.724Z,101708.75
2018-10-18T04:36:22.606Z,101704.58
2018-10-18T04:38:53.807Z,101712.28
2018-10-18T04:41:23.507Z,101710.57
2018-10-18T04:43:58.060Z,101712.09
2018-10-18T04:46:30.584Z,101711.41
2018-10-18T04:49:00.357Z,101716.55
2018-10-18T04:51:31.250Z,101714.54
2018-10-18T04:54:02.588Z,101718.71
2018-10-18T04:56:32.523Z,101718.92
2018-10-18T04:59:03.289Z,101721.93
2018-10-18T05:01:36.013Z,101724.34
2018-10-18T05:04:06.626Z,101726.68
2018-10-18T05:06:36.913Z,101723.00
2018-10-18T05:09:08.393Z,101726.00
2018-10-18T05:11:38.607Z,101725.34
2018-10-18T05:14:10.335Z,101725.31
2018-10-18T05:16:41.415Z,101727.30
2018-10-18T05:19:11.267Z,101727.78
2018-10-18T05:21:41.838Z,101725.23
2018-10-18T05:24:12.819Z,101742.77
2018-10-18T05:26:45.386Z,101729.28
2018-10-18T05:29:27.533Z,101736.64
2018-10-18T05:32:06.248Z,101728.77
2018-10-18T05:34:45.024Z,101739.09
2018-10-18T05:37:19.151Z,101740.34
2018-10-18T05:39:50.422Z,101744.82
2018-10-18T05:42:21.629Z,101748.14
2018-10-18T05:44:52.742Z,101749.84
2018-10-18T05:47:22.608Z,101751.80
2018-10-18T05:49:52.123Z,101760.85
2018-10-18T05:52:21.752Z,101758.06
2018-10-18T05:54:52.265Z,101765.19
2018-10-18T05:57:23.173Z,101759.98
2018-10-18T05:59:57.833Z,101762.64
2018-10-18T06:02:29.986Z,101765.09
2018-10-18T06:04:59.583Z,101761.30
2018-10-18T06:07:34.353Z,101774.78
2018-10-18T06:10:06.210Z,101770.16
2018-10-18T06:12:36.695Z,101770.02
2018-10-18T06:15:16.360Z,101447.77
2018-10-18T06:18:17.976Z,101774.09
2018-10-18T06:20:49.524Z,101777.46
2018-10-18T06:23:19.661Z,101783.26
2018-10-18T06:25:49.966Z,101781.73
2018-10-18T06:28:20.540Z,101782.69
2018-10-18T06:30:56.522Z,101787.69
2018-10-18T06:33:28.376Z,101797.14
2018-10-18T06:36:01.726Z,101796.90
2018-10-18T06:38:36.405Z,101796.94
2018-10-18T06:41:08.090Z,101796.13
2018-10-18T06:43:42.196Z,101795.13
2018-10-18T06:46:14.078Z,101799.65
2018-10-18T06:48:44.319Z,101795.41
2018-10-18T06:51:13.919Z,101791.66
2018-10-18T06:53:43.993Z,101794.09
2018-10-18T06:56:15.315Z,101790.67
2018-10-18T06:58:46.571Z,101787.24
2018-10-18T07:01:16.590Z,101798.36
2018-10-18T07:03:47.437Z,101798.48
2018-10-18T07:06:18.203Z,101797.38
2018-10-18T07:08:49.856Z,101806.33
2018-10-18T07:11:22.443Z,101798.98
2018-10-18T07:13:55.091Z,101802.31
2018-10-18T07:16:25.566Z,101803.27
2018-10-18T07:18:56.875Z,101809.42
2018-10-18T07:21:31.931Z,101798.30
2018-10-18T07:24:14.292Z,101803.87
2018-10-18T07:26:49.781Z,101813.20
2018-10-18T07:29:22.783Z,101823.48
2018-10-18T07:31:56.721Z,101829.16
2018-10-18T07:34:27.695Z,101831.21
2018-10-18T07:36:58.316Z,101827.55
2018-10-18T07:39:33.828Z,101823.52
2018-10-18T07:42:07.352Z,101824.36
2018-10-18T07:44:38.971Z,101826.63
2018-10-18T07:47:14.293Z,101822.80
2018-10-18T07:49:46.955Z,101822.38
2018-10-18T07:52:21.167Z,101827.77
2018-10-18T07:54:53.717Z,101834.84
2018-10-18T07:57:35.815Z,101833.25
2018-10-18T08:00:20.492Z,101840.80
2018-10-18T08:02:57.348Z,101841.84
2018-10-18T08:05:28.327Z,101842.82
2018-10-18T08:07:58.740Z,101840.50
2018-10-18T08:10:29.479Z,101849.91
2018-10-18T08:12:59.803Z,101846.69
2018-10-18T08:17:55.491Z,101850.78
2018-10-18T08:20:25.166Z,101850.08
2018-10-18T08:22:57.930Z,101850.69
2018-10-18T08:25:31.473Z,101854.16
2018-10-18T08:28:04.936Z,101862.66
2018-10-18T08:30:35.653Z,101862.92
2018-10-18T08:33:06.392Z,101864.01
2018-10-18T08:35:36.195Z,101860.28
2018-10-18T08:38:09.100Z,101872.03
2018-10-18T08:43:20.895Z,101864.80
2018-10-18T08:45:51.302Z,101872.11
2018-10-18T08:48:21.793Z,101875.88
2018-10-18T08:50:52.222Z,101869.36
2018-10-18T08:53:21.843Z,101871.38
2018-10-18T08:56:06.696Z,101879.84
2018-10-18T08:58:46.843Z,101884.41
2018-10-18T09:01:17.002Z,101882.50
2018-10-18T09:03:46.566Z,101886.82
2018-10-18T09:06:17.067Z,101878.92
2018-10-18T09:08:50.023Z,101876.16
2018-10-18T09:11:19.470Z,101885.80
2018-10-18T09:13:54.177Z,101880.98
2018-10-18T09:16:25.104Z,101884.34
2018-10-18T09:18:55.173Z,101879.00
2018-10-18T09:21:25.084Z,101879.77
2018-10-18T09:23:55.914Z,101882.62
2018-10-18T09:26:25.473Z,101880.81
2018-10-18T09:31:23.156Z,101879.53
2018-10-18T09:33:52.586Z,101893.79
2018-10-18T09:36:24.297Z,101891.67
2018-10-18T09:38:54.272Z,101893.88
2018-10-18T09:41:26.706Z,101892.67
2018-10-18T09:44:03.367Z,101896.72
2018-10-18T09:46:44.923Z,101890.55
2018-10-18T09:49:15.792Z,101890.05
2018-10-18T09:51:52.017Z,101895.95
2018-10-18T09:54:25.082Z,101899.70
2018-10-18T09:56:59.341Z,101899.14
2018-10-18T09:59:29.231Z,101909.82
2018-10-18T10:02:04.284Z,101907.31
2018-10-18T10:04:35.201Z,101913.87
2018-10-18T10:07:11.072Z,101904.44
2018-10-18T10:09:41.397Z,101904.72
2018-10-18T10:12:12.648Z,101913.31
2018-10-18T10:14:44.071Z,101914.30
2018-10-18T10:17:18.565Z,101910.08
2018-10-18T10:19:50.655Z,101917.05
2018-10-18T10:22:20.975Z,101904.70
2018-10-18T10:24:52.792Z,101910.30
2018-10-18T10:27:29.793Z,101907.90
2018-10-18T10:30:09.025Z,101910.98
2018-10-18T10:32:43.474Z,101911.92
2018-10-18T10:35:13.873Z,101909.95
2018-10-18T10:37:46.178Z,101911.52
2018-10-18T10:40:21.825Z,101907.59
2018-10-18T10:42:51.541Z,101907.34
2018-10-18T10:45:24.469Z,101877.12
2018-10-18T10:47:54.509Z,101910.23
2018-10-18T10:50:25.187Z,101899.42
2018-10-18T10:52:55.803Z,101896.86
2018-10-18T10:55:25.794Z,101894.08
2018-10-18T10:58:03.416Z,101900.95
2018-10-18T11:04:01.363Z,101895.09
2018-10-18T11:06:33.606Z,101893.97
2018-10-18T11:09:05.720Z,101892.02
2018-10-18T11:11:36.283Z,101895.29
2018-10-18T11:14:08.598Z,101889.92
2018-10-18T11:16:42.497Z,101890.92
2018-10-18T11:19:12.728Z,101895.42
2018-10-18T11:21:42.394Z,101882.53
2018-10-18T11:24:28.604Z,101885.45
2018-10-18T11:29:37.505Z,101890.89
2018-10-18T11:32:08.039Z,101885.09
2018-10-18T11:37:19.598Z,101883.29
2018-10-18T11:39:54.407Z,101883.12
2018-10-18T11:42:24.555Z,101887.41
2018-10-18T11:44:55.579Z,101881.28
2018-10-18T11:47:27.727Z,101884.31
2018-10-18T11:49:58.711Z,101879.61
2018-10-18T11:52:28.509Z,101873.97
2018-10-18T11:55:02.621Z,101866.59
2018-10-18T11:57:38.055Z,101869.72
2018-10-18T12:00:32.986Z,101876.50
2018-10-18T12:03:04.369Z,101877.50
2018-10-18T12:05:37.779Z,101869.44
2018-10-18T12:08:08.451Z,101875.27
2018-10-18T12:10:39.781Z,101870.53
2018-10-18T12:13:10.068Z,101870.03
2018-10-18T12:15:44.774Z,101867.11
2018-10-18T12:18:21.121Z,101861.20
2018-10-18T12:20:54.438Z,101861.18
2018-10-18T12:23:24.603Z,101855.95
2018-10-18T12:25:55.175Z,101857.94
2018-10-18T12:28:26.841Z,101858.59
2018-10-18T12:30:58.366Z,101861.72
2018-10-18T12:33:37.339Z,101860.16
2018-10-18T12:36:09.723Z,101859.52
2018-10-18T12:38:39.537Z,101860.59
2018-10-18T12:41:15.837Z,101863.25
2018-10-18T12:46:37.568Z,101859.28
2018-10-18T12:49:09.520Z,101858.98
2018-10-18T12:51:41.036Z,101860.14
2018-10-18T12:54:18.560Z,101861.95
2018-10-18T12:56:53.747Z,101862.61
2018-10-18T12:59:32.099Z,101863.86
2018-10-18T13:02:05.311Z,101857.59
2018-10-18T13:04:38.670Z,101862.55
2018-10-18T13:07:11.512Z,101862.84
2018-10-18T13:09:43.603Z,101864.03
2018-10-18T13:12:16.602Z,101865.55
2018-10-18T13:14:47.267Z,101868.35
2018-10-18T13:17:19.388Z,101870.97
2018-10-18T13:19:49.115Z,101864.00
2018-10-18T13:22:25.078Z,101870.32
2018-10-18T13:24:58.120Z,101867.81
2018-10-18T13:27:35.221Z,101863.89
2018-10-18T13:32:58.065Z,101858.58
2018-10-18T13:35:44.578Z,101858.47
2018-10-18T13:38:17.336Z,101858.47
2018-10-18T13:40:53.387Z,101855.46
2018-10-18T13:43:26.263Z,101857.53
2018-10-18T13:45:56.781Z,101860.39
2018-10-18T13:48:25.934Z,101808.41
2018-10-18T13:50:55.929Z,101859.67
2018-10-18T13:53:31.225Z,101855.33
2018-10-18T13:56:04.244Z,101852.63
2018-10-18T13:58:34.967Z,101848.11
2018-10-18T14:01:05.967Z,101855.91
2018-10-18T14:03:36.948Z,101855.73
2018-10-18T14:06:11.364Z,101864.22
2018-10-18T14:08:42.873Z,101857.30
2018-10-18T14:11:15.351Z,101855.89
2018-10-18T14:13:45.437Z,101860.81
2018-10-18T14:16:17.961Z,101858.45
2018-10-18T14:19:01.966Z,101853.39
2018-10-18T14:21:40.640Z,101853.23
2018-10-18T14:24:14.103Z,101857.42
2018-10-18T14:26:47.829Z,101858.43
2018-10-18T14:29:22.918Z,101862.37
2018-10-18T14:34:37.570Z,101850.69
2018-10-18T14:37:09.835Z,101852.55
2018-10-18T14:39:48.094Z,101856.09
2018-10-18T14:42:22.166Z,101855.93
2018-10-18T14:44:53.956Z,101853.58
2018-10-18T14:47:25.278Z,101857.47
2018-10-18T14:49:55.826Z,101855.60
2018-10-18T14:52:26.007Z,101535.70
2018-10-18T14:54:55.204Z,101841.06
2018-10-18T14:57:29.236Z,101845.62
2018-10-18T15:00:07.084Z,101839.91
2018-10-18T15:02:38.036Z,101849.19
2018-10-18T15:05:11.508Z,101841.75
2018-10-18T15:07:42.778Z,101846.44
2018-10-18T15:10:14.125Z,101847.77
2018-10-18T15:12:48.270Z,101845.08
2018-10-18T15:18:10.946Z,101851.28
2018-10-18T15:20:42.929Z,101850.90
2018-10-18T15:23:33.656Z,101852.23
2018-10-18T15:26:06.152Z,101848.48
2018-10-18T15:28:36.992Z,101848.68
2018-10-18T15:31:06.765Z,101850.41
2018-10-18T15:33:36.554Z,101851.45
2018-10-18T15:36:07.752Z,101857.05
2018-10-18T15:38:39.748Z,101852.80
2018-10-18T15:41:09.415Z,101857.20
2018-10-18T15:43:39.434Z,101863.59
2018-10-18T15:46:09.205Z,101857.34
2018-10-18T15:48:38.850Z,101854.65
2018-10-18T15:51:08.581Z,101856.49
2018-10-18T15:53:38.495Z,101861.44
2018-10-18T15:56:19.226Z,101857.03
2018-10-18T15:58:57.863Z,101851.28
2018-10-18T16:01:30.657Z,101854.80
2018-10-18T16:04:00.122Z,101854.34
2018-10-18T16:06:34.260Z,101857.58
2018-10-18T16:09:05.470Z,101859.74
2018-10-18T16:11:35.780Z,101867.84
2018-10-18T16:14:05.092Z,101733.59
2018-10-18T16:16:35.317Z,101868.34
2018-10-18T16:19:09.454Z,101869.79
2018-10-18T16:21:39.742Z,101874.83
2018-10-18T16:24:11.204Z,101876.32
2018-10-18T16:26:40.671Z,101884.20
2018-10-18T16:29:11.585Z,101883.45
2018-10-18T16:31:44.425Z,101888.63
2018-10-18T16:34:20.806Z,101889.81
2018-10-18T16:36:53.168Z,101887.56
2018-10-18T16:39:24.024Z,101894.91
2018-10-18T16:42:20.409Z,101896.61
2018-10-18T16:44:52.415Z,101903.10
2018-10-18T16:47:36.407Z,101900.05
2018-10-18T16:50:06.210Z,101900.11
2018-10-18T16:52:37.126Z,101904.22
2018-10-18T16:55:07.137Z,101901.50
2018-10-18T16:57:37.690Z,101903.60
2018-10-18T17:00:15.475Z,101905.67
2018-10-18T17:02:54.366Z,101906.45
2018-10-18T17:05:27.025Z,101911.77
2018-10-18T17:07:56.463Z,101907.13
2018-10-18T17:10:31.379Z,101909.95
2018-10-18T17:13:02.399Z,101914.14
2018-10-18T17:15:32.047Z,101913.29
2018-10-18T17:18:02.172Z,101916.45
2018-10-18T17:20:32.176Z,101903.52
2018-10-18T17:23:05.209Z,101865.77
2018-10-18T17:25:35.986Z,101910.67
2018-10-18T17:28:08.098Z,101906.09
2018-10-18T17:30:39.246Z,101803.06
2018-10-18T17:33:11.550Z,101851.70
2018-10-18T17:35:43.301Z,101908.56
2018-10-18T17:38:12.745Z,101913.62
2018-10-18T17:40:46.669Z,101916.06
2018-10-18T17:43:16.850Z,101919.94
2018-10-18T17:45:50.642Z,101919.39
2018-10-18T17:48:19.985Z,101924.33
2018-10-18T17:50:52.833Z,101924.82
2018-10-18T17:53:23.681Z,101924.11
2018-10-18T17:55:54.341Z,101918.61
2018-10-18T17:58:23.896Z,101923.86
2018-10-18T18:00:59.165Z,101857.14
2018-10-18T18:03:28.485Z,101922.23
2018-10-18T18:05:58.914Z,101927.62
2018-10-18T18:08:28.120Z,101927.35
2018-10-18T18:10:59.405Z,101938.61
2018-10-18T18:13:28.855Z,101935.02
2018-10-18T18:16:09.540Z,101934.56
2018-10-18T18:18:43.930Z,101941.69
2018-10-18T18:21:19.926Z,101934.42
2018-10-18T18:23:51.989Z,101940.34
2018-10-18T18:26:32.446Z,101936.17
2018-10-18T18:31:28.577Z,101938.50
2018-10-18T18:34:06.167Z,101939.55
2018-10-18T18:36:36.439Z,101943.58
2018-10-18T18:39:08.756Z,101938.73
2018-10-18T18:41:44.008Z,101950.34
2018-10-18T18:44:14.794Z,101949.54
2018-10-18T18:46:57.028Z,101957.83
2018-10-18T18:49:30.864Z,101959.66
2018-10-18T18:52:00.987Z,101958.63
2018-10-18T18:54:32.935Z,101962.84
2018-10-18T18:57:03.218Z,101963.48
2018-10-18T18:59:32.580Z,101971.08
2018-10-18T19:02:13.518Z,101970.84
2018-10-18T19:07:20.111Z,101979.27
2018-10-18T19:09:54.274Z,101982.39
2018-10-18T19:12:23.720Z,101987.84
2018-10-18T19:14:57.377Z,101983.94
2018-10-18T19:17:28.252Z,101989.37
2018-10-18T19:19:57.365Z,101988.39
2018-10-18T19:22:27.081Z,101990.30
2018-10-18T19:24:57.754Z,101998.42
2018-10-18T19:27:29.909Z,101996.16
2018-10-18T19:30:00.170Z,102003.37
2018-10-18T19:32:30.337Z,102003.37
2018-10-18T19:37:48.364Z,102010.25
2018-10-18T19:40:18.503Z,102002.68
2018-10-18T19:42:49.328Z,102000.64
2018-10-18T19:45:19.744Z,102003.82
2018-10-18T19:47:51.162Z,102002.25
2018-10-18T19:50:20.973Z,102012.41
2018-10-18T19:52:51.831Z,102008.70
2018-10-18T19:55:22.580Z,102010.11
2018-10-18T19:57:59.967Z,102004.30
2018-10-18T20:00:29.932Z,102001.42
2018-10-18T20:03:04.103Z,102006.36
2018-10-18T20:05:35.860Z,102010.23
2018-10-18T20:08:08.244Z,102003.45
2018-10-18T20:10:38.249Z,102012.30
2018-10-18T20:13:10.551Z,102015.55
2018-10-18T20:15:40.023Z,102017.38
2018-10-18T20:18:12.507Z,102010.51
2018-10-18T20:20:42.601Z,102017.72
2018-10-18T20:23:12.052Z,102017.18
2018-10-18T20:25:44.836Z,102016.63
2018-10-18T20:28:15.445Z,102018.45
2018-10-18T20:30:44.774Z,102024.94
2018-10-18T20:33:14.633Z,102014.69
2018-10-18T20:35:46.689Z,102016.19
2018-10-18T20:38:17.103Z,102012.16
2018-10-18T20:40:46.989Z,102015.33
2018-10-18T20:43:16.342Z,102010.09
2018-10-18T20:45:48.989Z,102011.08
2018-10-18T20:48:20.302Z,102016.79
2018-10-18T20:50:49.497Z,102016.36
2018-10-18T20:53:22.107Z,101942.83
2018-10-18T20:55:52.067Z,102008.91
2018-10-18T20:58:25.156Z,102012.89
2018-10-18T21:00:59.824Z,102010.44
2018-10-18T21:03:31.018Z,102011.56
2018-10-18T21:06:01.013Z,102008.75
2018-10-18T21:08:30.679Z,102011.44
2018-10-18T21:11:00.684Z,102009.95
2018-10-18T21:13:36.232Z,102011.67
2018-10-18T21:16:09.333Z,102013.88
2018-10-18T21:18:39.049Z,102007.39
2018-10-18T21:21:11.587Z,102005.69
2018-10-18T21:26:20.098Z,102004.47
2018-10-18T21:28:51.678Z,101997.05
2018-10-18T21:31:21.082Z,101987.06
2018-10-18T21:34:03.397Z,101983.10
2018-10-18T21:36:33.615Z,101986.02
2018-10-18T21:39:04.651Z,101982.05
2018-10-18T21:41:35.792Z,101983.95
2018-10-18T21:44:06.793Z,101983.64
2018-10-18T21:46:39.356Z,101990.56
2018-10-18T21:49:12.217Z,101989.16
2018-10-18T21:51:43.068Z,101982.73
2018-10-18T21:54:15.106Z,101983.92
2018-10-18T21:56:45.488Z,101992.56
2018-10-18T21:59:25.946Z,101989.81
2018-10-18T22:01:57.502Z,101990.45
2018-10-18T22:04:28.740Z,101991.16
2018-10-18T22:06:57.807Z,101993.98
2018-10-18T22:09:32.820Z,101989.95
2018-10-18T22:12:02.399Z,101995.45
2018-10-18T22:14:34.308Z,101989.59
2018-10-18T22:17:03.882Z,101987.70
2018-10-18T22:19:35.503Z,101988.48
2018-10-18T22:22:05.410Z,101983.37
2018-10-18T22:24:37.259Z,101978.85
2018-10-18T22:27:07.739Z,101976.02
2018-10-18T22:29:37.812Z,101972.98
2018-10-18T22:32:07.509Z,101978.78
2018-10-18T22:34:37.009Z,101971.70
2018-10-18T22:37:06.448Z,101972.06
2018-10-18T22:39:35.784Z,101966.19
2018-10-18T22:42:06.869Z,101969.57
2018-10-18T22:44:36.599Z,101967.61
2018-10-18T22:47:06.298Z,101968.95
2018-10-18T22:49:35.832Z,101968.09
2018-10-18T22:52:05.279Z,101973.34
2018-10-18T22:54:35.249Z,101969.37
2018-10-18T22:57:04.704Z,101966.20
2018-10-18T22:59:33.803Z,101965.35
2018-10-18T23:02:03.122Z,101959.97
2018-10-18T23:04:32.544Z,101960.88
2018-10-18T23:07:01.621Z,101963.98
2018-10-18T23:09:30.813Z,101958.74
2018-10-18T23:12:01.842Z,101959.29
2018-10-18T23:14:31.433Z,101958.44
2018-10-18T23:17:00.862Z,101957.22
2018-10-18T23:19:32.806Z,101958.30
2018-10-18T23:22:05.971Z,101950.44
2018-10-18T23:24:36.393Z,101955.16
2018-10-18T23:27:06.553Z,101950.34
2018-10-18T23:29:37.758Z,101956.51
2018-10-18T23:32:11.784Z,101957.36
2018-10-18T23:34:41.354Z,101957.56
2018-10-18T23:37:10.678Z,101959.58
2018-10-18T23:39:41.521Z,101954.43
2018-10-18T23:42:12.275Z,101950.56
2018-10-18T23:44:44.177Z,101946.17
2018-10-18T23:47:16.826Z,101949.11
2018-10-18T23:49:47.866Z,101940.02
2018-10-18T23:52:18.920Z,101944.28
2018-10-18T23:54:49.233Z,101942.23
2018-10-18T23:57:19.711Z,101950.33
2018-10-18T23:59:50.533Z,101948.00
